sensor_id;sensor_type;location;lat;lon;timestamp;P1;durP1;ratioP1;P2;durP2;ratioP2
9473;SDS011;8865;47.636;7.692;2022-12-31T00:01:53;5.67;;;4.10;;
9473;SDS011;8865;47.636;7.692;2022-12-31T00:04:19;5.37;;;4.10;;
9473;SDS011;8865;47.636;7.692;2022-12-31T00:06:45;4.80;;;3.93;;
9473;SDS011;8865;47.636;7.692;2022-12-31T00:09:11;5.57;;;4.57;;
9473;SDS011;8865;47.636;7.692;2022-12-31T00:11:37;4.67;;;4.27;;
9473;SDS011;8865;47.636;7.692;2022-12-31T00:14:04;4.93;;;4.10;;
9473;SDS011;8865;47.636;7.692;2022-12-31T00:16:31;6.93;;;6.10;;
9473;SDS011;8865;47.636;7.692;2022-12-31T00:19:00;7.60;;;4.50;;
9473;SDS011;8865;47.636;7.692;2022-12-31T00:21:28;7.67;;;4.93;;
9473;SDS011;8865;47.636;7.692;2022-12-31T00:23:57;6.97;;;4.57;;
9473;SDS011;8865;47.636;7.692;2022-12-31T00:26:25;5.23;;;3.90;;
9473;SDS011;8865;47.636;7.692;2022-12-31T00:28:53;5.37;;;3.93;;
9473;SDS011;8865;47.636;7.692;2022-12-31T00:31:21;3.40;;;3.10;;
9473;SDS011;8865;47.636;7.692;2022-12-31T00:33:48;6.30;;;3.00;;
9473;SDS011;8865;47.636;7.692;2022-12-31T00:36:18;3.83;;;2.67;;
9473;SDS011;8865;47.636;7.692;2022-12-31T00:38:46;3.27;;;2.40;;
9473;SDS011;8865;47.636;7.692;2022-12-31T00:41:16;3.40;;;2.50;;
9473;SDS011;8865;47.636;7.692;2022-12-31T00:43:43;6.47;;;3.03;;
9473;SDS011;8865;47.636;7.692;2022-12-31T00:46:10;3.50;;;3.13;;
9473;SDS011;8865;47.636;7.692;2022-12-31T00:48:36;6.57;;;3.50;;
9473;SDS011;8865;47.636;7.692;2022-12-31T00:51:04;4.30;;;3.07;;
9473;SDS011;8865;47.636;7.692;2022-12-31T00:53:31;6.43;;;3.13;;
9473;SDS011;8865;47.636;7.692;2022-12-31T00:56:01;4.70;;;3.10;;
9473;SDS011;8865;47.636;7.692;2022-12-31T00:58:28;4.67;;;3.27;;
9473;SDS011;8865;47.636;7.692;2022-12-31T01:00:55;4.87;;;3.33;;
9473;SDS011;8865;47.636;7.692;2022-12-31T01:03:21;3.50;;;3.13;;
9473;SDS011;8865;47.636;7.692;2022-12-31T01:05:50;6.50;;;3.47;;
9473;SDS011;8865;47.636;7.692;2022-12-31T01:08:16;3.50;;;3.20;;
9473;SDS011;8865;47.636;7.692;2022-12-31T01:10:47;4.77;;;3.10;;
9473;SDS011;8865;47.636;7.692;2022-12-31T01:13:32;3.50;;;3.20;;
9473;SDS011;8865;47.636;7.692;2022-12-31T01:16:04;4.13;;;3.00;;
9473;SDS011;8865;47.636;7.692;2022-12-31T01:18:31;3.33;;;3.00;;
9473;SDS011;8865;47.636;7.692;2022-12-31T01:20:59;4.23;;;2.77;;
9473;SDS011;8865;47.636;7.692;2022-12-31T01:23:26;4.03;;;2.93;;
9473;SDS011;8865;47.636;7.692;2022-12-31T01:25:52;4.77;;;3.07;;
9473;SDS011;8865;47.636;7.692;2022-12-31T01:28:19;3.17;;;2.70;;
9473;SDS011;8865;47.636;7.692;2022-12-31T01:30:44;4.50;;;3.07;;
9473;SDS011;8865;47.636;7.692;2022-12-31T01:33:11;5.97;;;3.43;;
9473;SDS011;8865;47.636;7.692;2022-12-31T01:35:37;4.30;;;3.37;;
9473;SDS011;8865;47.636;7.692;2022-12-31T01:38:03;8.13;;;3.63;;
9473;SDS011;8865;47.636;7.692;2022-12-31T01:40:29;3.30;;;3.00;;
9473;SDS011;8865;47.636;7.692;2022-12-31T01:42:55;3.90;;;2.93;;
9473;SDS011;8865;47.636;7.692;2022-12-31T01:45:22;3.73;;;2.70;;
9473;SDS011;8865;47.636;7.692;2022-12-31T01:47:50;5.80;;;3.20;;
9473;SDS011;8865;47.636;7.692;2022-12-31T01:50:28;3.50;;;2.90;;
9473;SDS011;8865;47.636;7.692;2022-12-31T01:52:57;4.37;;;3.07;;
9473;SDS011;8865;47.636;7.692;2022-12-31T01:58:15;5.97;;;2.80;;
9473;SDS011;8865;47.636;7.692;2022-12-31T02:00:44;4.57;;;2.97;;
9473;SDS011;8865;47.636;7.692;2022-12-31T02:03:12;3.73;;;2.30;;
9473;SDS011;8865;47.636;7.692;2022-12-31T02:05:46;3.57;;;2.80;;
9473;SDS011;8865;47.636;7.692;2022-12-31T02:08:19;3.40;;;2.70;;
9473;SDS011;8865;47.636;7.692;2022-12-31T02:10:45;4.77;;;2.60;;
9473;SDS011;8865;47.636;7.692;2022-12-31T02:13:12;4.23;;;2.73;;
9473;SDS011;8865;47.636;7.692;2022-12-31T02:15:50;5.83;;;2.63;;
9473;SDS011;8865;47.636;7.692;2022-12-31T02:21:30;3.63;;;2.47;;
9473;SDS011;8865;47.636;7.692;2022-12-31T02:27:00;4.13;;;2.77;;
9473;SDS011;8865;47.636;7.692;2022-12-31T02:35:36;3.07;;;2.20;;
9473;SDS011;8865;47.636;7.692;2022-12-31T02:37:55;2.70;;;2.20;;
9473;SDS011;8865;47.636;7.692;2022-12-31T02:40:25;2.67;;;2.13;;
9473;SDS011;8865;47.636;7.692;2022-12-31T02:42:51;3.60;;;2.40;;
9473;SDS011;8865;47.636;7.692;2022-12-31T02:45:19;3.23;;;2.10;;
9473;SDS011;8865;47.636;7.692;2022-12-31T02:48:03;1.93;;;1.83;;
9473;SDS011;8865;47.636;7.692;2022-12-31T02:56:12;2.10;;;1.90;;
9473;SDS011;8865;47.636;7.692;2022-12-31T03:01:55;4.10;;;1.90;;
9473;SDS011;8865;47.636;7.692;2022-12-31T03:04:41;5.47;;;1.87;;
9473;SDS011;8865;47.636;7.692;2022-12-31T03:07:17;3.00;;;1.73;;
9473;SDS011;8865;47.636;7.692;2022-12-31T03:09:49;2.23;;;2.03;;
9473;SDS011;8865;47.636;7.692;2022-12-31T03:12:15;3.10;;;1.97;;
9473;SDS011;8865;47.636;7.692;2022-12-31T03:15:01;3.97;;;2.00;;
9473;SDS011;8865;47.636;7.692;2022-12-31T03:17:32;2.43;;;1.83;;
9473;SDS011;8865;47.636;7.692;2022-12-31T03:19:58;2.93;;;2.00;;
9473;SDS011;8865;47.636;7.692;2022-12-31T03:22:43;2.40;;;1.70;;
9473;SDS011;8865;47.636;7.692;2022-12-31T03:27:55;2.10;;;1.40;;
9473;SDS011;8865;47.636;7.692;2022-12-31T03:30:22;6.70;;;1.97;;
9473;SDS011;8865;47.636;7.692;2022-12-31T03:32:49;2.17;;;1.70;;
9473;SDS011;8865;47.636;7.692;2022-12-31T03:35:16;2.33;;;1.60;;
9473;SDS011;8865;47.636;7.692;2022-12-31T03:37:45;2.87;;;1.80;;
9473;SDS011;8865;47.636;7.692;2022-12-31T03:40:12;3.90;;;1.73;;
9473;SDS011;8865;47.636;7.692;2022-12-31T03:42:39;4.97;;;1.70;;
9473;SDS011;8865;47.636;7.692;2022-12-31T03:45:05;3.37;;;1.70;;
9473;SDS011;8865;47.636;7.692;2022-12-31T03:47:32;3.23;;;1.70;;
9473;SDS011;8865;47.636;7.692;2022-12-31T03:49:58;3.30;;;1.80;;
9473;SDS011;8865;47.636;7.692;2022-12-31T03:52:24;3.03;;;1.80;;
9473;SDS011;8865;47.636;7.692;2022-12-31T03:54:50;2.00;;;1.80;;
9473;SDS011;8865;47.636;7.692;2022-12-31T03:57:16;2.67;;;1.73;;
9473;SDS011;8865;47.636;7.692;2022-12-31T03:59:42;4.60;;;1.70;;
9473;SDS011;8865;47.636;7.692;2022-12-31T04:02:08;4.50;;;2.20;;
9473;SDS011;8865;47.636;7.692;2022-12-31T04:04:34;2.93;;;1.80;;
9473;SDS011;8865;47.636;7.692;2022-12-31T04:07:00;4.57;;;1.87;;
9473;SDS011;8865;47.636;7.692;2022-12-31T04:09:26;1.97;;;1.77;;
9473;SDS011;8865;47.636;7.692;2022-12-31T04:11:52;3.27;;;1.53;;
9473;SDS011;8865;47.636;7.692;2022-12-31T04:14:18;3.50;;;1.97;;
9473;SDS011;8865;47.636;7.692;2022-12-31T04:16:44;2.93;;;1.83;;
9473;SDS011;8865;47.636;7.692;2022-12-31T04:19:10;1.77;;;1.40;;
9473;SDS011;8865;47.636;7.692;2022-12-31T04:21:37;3.70;;;1.67;;
9473;SDS011;8865;47.636;7.692;2022-12-31T04:24:03;1.83;;;1.70;;
9473;SDS011;8865;47.636;7.692;2022-12-31T04:26:29;2.13;;;1.70;;
9473;SDS011;8865;47.636;7.692;2022-12-31T04:28:56;4.43;;;1.90;;
9473;SDS011;8865;47.636;7.692;2022-12-31T04:31:22;1.83;;;1.40;;
9473;SDS011;8865;47.636;7.692;2022-12-31T04:33:48;3.10;;;1.67;;
9473;SDS011;8865;47.636;7.692;2022-12-31T04:36:14;2.07;;;1.50;;
9473;SDS011;8865;47.636;7.692;2022-12-31T04:38:40;2.90;;;1.50;;
9473;SDS011;8865;47.636;7.692;2022-12-31T04:41:06;3.43;;;1.60;;
9473;SDS011;8865;47.636;7.692;2022-12-31T04:43:45;3.07;;;1.50;;
9473;SDS011;8865;47.636;7.692;2022-12-31T04:46:20;2.33;;;1.50;;
9473;SDS011;8865;47.636;7.692;2022-12-31T04:48:48;1.40;;;1.30;;
9473;SDS011;8865;47.636;7.692;2022-12-31T04:51:14;2.10;;;1.70;;
9473;SDS011;8865;47.636;7.692;2022-12-31T04:53:40;2.60;;;1.70;;
9473;SDS011;8865;47.636;7.692;2022-12-31T04:56:06;3.77;;;1.77;;
9473;SDS011;8865;47.636;7.692;2022-12-31T04:58:33;1.70;;;1.60;;
9473;SDS011;8865;47.636;7.692;2022-12-31T05:00:59;3.20;;;1.73;;
9473;SDS011;8865;47.636;7.692;2022-12-31T05:03:26;2.83;;;1.70;;
9473;SDS011;8865;47.636;7.692;2022-12-31T05:05:52;2.50;;;1.50;;
9473;SDS011;8865;47.636;7.692;2022-12-31T05:08:19;1.60;;;1.50;;
9473;SDS011;8865;47.636;7.692;2022-12-31T05:10:46;3.13;;;1.90;;
9473;SDS011;8865;47.636;7.692;2022-12-31T05:13:13;3.60;;;2.07;;
9473;SDS011;8865;47.636;7.692;2022-12-31T05:15:40;2.93;;;1.90;;
9473;SDS011;8865;47.636;7.692;2022-12-31T05:18:06;3.00;;;1.90;;
9473;SDS011;8865;47.636;7.692;2022-12-31T05:20:33;4.53;;;2.13;;
9473;SDS011;8865;47.636;7.692;2022-12-31T05:23:00;2.97;;;1.60;;
9473;SDS011;8865;47.636;7.692;2022-12-31T05:25:26;3.83;;;1.83;;
9473;SDS011;8865;47.636;7.692;2022-12-31T05:27:52;2.50;;;2.10;;
9473;SDS011;8865;47.636;7.692;2022-12-31T05:30:18;2.33;;;1.80;;
9473;SDS011;8865;47.636;7.692;2022-12-31T05:32:45;3.53;;;1.77;;
9473;SDS011;8865;47.636;7.692;2022-12-31T05:35:11;2.00;;;1.80;;
9473;SDS011;8865;47.636;7.692;2022-12-31T05:37:37;2.83;;;2.00;;
9473;SDS011;8865;47.636;7.692;2022-12-31T05:40:04;2.20;;;1.97;;
9473;SDS011;8865;47.636;7.692;2022-12-31T05:42:31;3.53;;;1.80;;
9473;SDS011;8865;47.636;7.692;2022-12-31T05:44:57;2.83;;;1.80;;
9473;SDS011;8865;47.636;7.692;2022-12-31T05:47:24;2.93;;;2.20;;
9473;SDS011;8865;47.636;7.692;2022-12-31T05:49:50;3.97;;;2.30;;
9473;SDS011;8865;47.636;7.692;2022-12-31T05:52:16;3.20;;;1.50;;
9473;SDS011;8865;47.636;7.692;2022-12-31T05:54:42;3.07;;;1.80;;
9473;SDS011;8865;47.636;7.692;2022-12-31T05:57:08;2.13;;;1.93;;
9473;SDS011;8865;47.636;7.692;2022-12-31T05:59:35;2.93;;;2.00;;
9473;SDS011;8865;47.636;7.692;2022-12-31T06:02:01;2.83;;;2.03;;
9473;SDS011;8865;47.636;7.692;2022-12-31T06:04:27;3.43;;;2.00;;
9473;SDS011;8865;47.636;7.692;2022-12-31T06:06:53;3.63;;;1.90;;
9473;SDS011;8865;47.636;7.692;2022-12-31T06:09:19;3.20;;;1.87;;
9473;SDS011;8865;47.636;7.692;2022-12-31T06:11:46;2.07;;;1.80;;
9473;SDS011;8865;47.636;7.692;2022-12-31T06:14:12;3.87;;;2.03;;
9473;SDS011;8865;47.636;7.692;2022-12-31T06:16:38;4.07;;;1.80;;
9473;SDS011;8865;47.636;7.692;2022-12-31T06:19:05;4.33;;;1.70;;
9473;SDS011;8865;47.636;7.692;2022-12-31T06:21:31;2.43;;;1.90;;
9473;SDS011;8865;47.636;7.692;2022-12-31T06:23:58;4.90;;;2.07;;
9473;SDS011;8865;47.636;7.692;2022-12-31T06:26:24;5.43;;;1.90;;
9473;SDS011;8865;47.636;7.692;2022-12-31T06:28:51;2.23;;;1.80;;
9473;SDS011;8865;47.636;7.692;2022-12-31T06:31:18;3.10;;;1.77;;
9473;SDS011;8865;47.636;7.692;2022-12-31T06:33:44;3.77;;;1.67;;
9473;SDS011;8865;47.636;7.692;2022-12-31T06:36:12;3.53;;;1.70;;
9473;SDS011;8865;47.636;7.692;2022-12-31T06:38:40;2.10;;;1.90;;
9473;SDS011;8865;47.636;7.692;2022-12-31T06:41:08;3.50;;;1.87;;
9473;SDS011;8865;47.636;7.692;2022-12-31T06:43:36;2.43;;;1.80;;
9473;SDS011;8865;47.636;7.692;2022-12-31T06:46:04;4.37;;;1.70;;
9473;SDS011;8865;47.636;7.692;2022-12-31T06:48:31;1.60;;;1.50;;
9473;SDS011;8865;47.636;7.692;2022-12-31T06:51:07;2.67;;;1.43;;
9473;SDS011;8865;47.636;7.692;2022-12-31T06:53:36;2.60;;;1.50;;
9473;SDS011;8865;47.636;7.692;2022-12-31T06:56:06;1.70;;;1.60;;
9473;SDS011;8865;47.636;7.692;2022-12-31T06:58:35;3.37;;;1.57;;
9473;SDS011;8865;47.636;7.692;2022-12-31T07:06:14;4.77;;;2.03;;
9473;SDS011;8865;47.636;7.692;2022-12-31T07:11:21;3.93;;;2.30;;
9473;SDS011;8865;47.636;7.692;2022-12-31T07:22:03;6.63;;;4.63;;
9473;SDS011;8865;47.636;7.692;2022-12-31T07:24:36;3.87;;;2.60;;
9473;SDS011;8865;47.636;7.692;2022-12-31T07:41:14;3.83;;;2.63;;
9473;SDS011;8865;47.636;7.692;2022-12-31T07:46:34;2.60;;;2.27;;
9473;SDS011;8865;47.636;7.692;2022-12-31T07:49:19;3.30;;;3.00;;
9473;SDS011;8865;47.636;7.692;2022-12-31T07:51:45;4.67;;;2.90;;
9473;SDS011;8865;47.636;7.692;2022-12-31T07:54:11;3.67;;;2.60;;
9473;SDS011;8865;47.636;7.692;2022-12-31T07:56:37;2.70;;;2.40;;
9473;SDS011;8865;47.636;7.692;2022-12-31T07:59:07;3.10;;;2.50;;
9473;SDS011;8865;47.636;7.692;2022-12-31T08:09:49;5.13;;;3.20;;
9473;SDS011;8865;47.636;7.692;2022-12-31T08:12:21;4.47;;;2.57;;
9473;SDS011;8865;47.636;7.692;2022-12-31T08:14:49;3.23;;;2.93;;
9473;SDS011;8865;47.636;7.692;2022-12-31T08:17:17;3.60;;;2.80;;
9473;SDS011;8865;47.636;7.692;2022-12-31T08:19:44;5.40;;;2.83;;
9473;SDS011;8865;47.636;7.692;2022-12-31T08:25:51;5.10;;;2.87;;
9473;SDS011;8865;47.636;7.692;2022-12-31T08:31:00;3.33;;;2.93;;
9473;SDS011;8865;47.636;7.692;2022-12-31T08:45:25;3.23;;;2.73;;
9473;SDS011;8865;47.636;7.692;2022-12-31T08:50:26;4.63;;;3.40;;
9473;SDS011;8865;47.636;7.692;2022-12-31T08:52:52;5.20;;;4.53;;
9473;SDS011;8865;47.636;7.692;2022-12-31T08:55:19;4.60;;;4.10;;
9473;SDS011;8865;47.636;7.692;2022-12-31T09:00:25;5.77;;;5.17;;
9473;SDS011;8865;47.636;7.692;2022-12-31T09:05:51;6.03;;;4.10;;
9473;SDS011;8865;47.636;7.692;2022-12-31T09:10:57;3.77;;;2.67;;
9473;SDS011;8865;47.636;7.692;2022-12-31T09:16:24;4.97;;;4.13;;
9473;SDS011;8865;47.636;7.692;2022-12-31T09:19:01;2.90;;;2.60;;
9473;SDS011;8865;47.636;7.692;2022-12-31T09:21:27;4.47;;;2.50;;
9473;SDS011;8865;47.636;7.692;2022-12-31T09:23:53;2.70;;;2.50;;
9473;SDS011;8865;47.636;7.692;2022-12-31T09:31:53;2.70;;;2.30;;
9473;SDS011;8865;47.636;7.692;2022-12-31T09:37:19;2.77;;;2.20;;
9473;SDS011;8865;47.636;7.692;2022-12-31T09:39:53;3.33;;;2.47;;
9473;SDS011;8865;47.636;7.692;2022-12-31T09:51:46;4.23;;;2.50;;
9473;SDS011;8865;47.636;7.692;2022-12-31T10:00:14;4.50;;;2.37;;
9473;SDS011;8865;47.636;7.692;2022-12-31T10:11:05;4.23;;;2.63;;
9473;SDS011;8865;47.636;7.692;2022-12-31T10:29:46;3.93;;;2.70;;
9473;SDS011;8865;47.636;7.692;2022-12-31T10:37:18;2.57;;;2.00;;
9473;SDS011;8865;47.636;7.692;2022-12-31T10:42:34;3.80;;;2.23;;
9473;SDS011;8865;47.636;7.692;2022-12-31T10:59:44;2.78;;;2.33;;
9473;SDS011;8865;47.636;7.692;2022-12-31T11:10:26;3.00;;;2.15;;
9473;SDS011;8865;47.636;7.692;2022-12-31T11:37:10;4.40;;;2.73;;
9473;SDS011;8865;47.636;7.692;2022-12-31T11:48:30;4.93;;;2.80;;
9473;SDS011;8865;47.636;7.692;2022-12-31T11:56:49;3.37;;;2.80;;
9473;SDS011;8865;47.636;7.692;2022-12-31T11:59:21;3.53;;;2.77;;
9473;SDS011;8865;47.636;7.692;2022-12-31T12:04:51;3.83;;;2.90;;
9473;SDS011;8865;47.636;7.692;2022-12-31T12:07:19;2.80;;;2.50;;
9473;SDS011;8865;47.636;7.692;2022-12-31T12:09:46;2.80;;;2.50;;
9473;SDS011;8865;47.636;7.692;2022-12-31T12:12:13;4.07;;;2.50;;
9473;SDS011;8865;47.636;7.692;2022-12-31T12:14:41;2.50;;;2.30;;
9473;SDS011;8865;47.636;7.692;2022-12-31T12:17:09;4.03;;;2.60;;
9473;SDS011;8865;47.636;7.692;2022-12-31T12:19:56;3.80;;;2.50;;
9473;SDS011;8865;47.636;7.692;2022-12-31T12:22:26;2.63;;;2.00;;
9473;SDS011;8865;47.636;7.692;2022-12-31T12:24:56;1.50;;;1.40;;
9473;SDS011;8865;47.636;7.692;2022-12-31T12:27:31;1.67;;;1.40;;
9473;SDS011;8865;47.636;7.692;2022-12-31T12:30:08;3.00;;;1.73;;
9473;SDS011;8865;47.636;7.692;2022-12-31T12:32:54;2.10;;;1.80;;
9473;SDS011;8865;47.636;7.692;2022-12-31T12:35:38;4.37;;;2.33;;
9473;SDS011;8865;47.636;7.692;2022-12-31T12:38:15;2.57;;;1.50;;
9473;SDS011;8865;47.636;7.692;2022-12-31T12:43:23;2.87;;;2.37;;
9473;SDS011;8865;47.636;7.692;2022-12-31T12:45:53;3.43;;;2.00;;
9473;SDS011;8865;47.636;7.692;2022-12-31T12:51:24;1.80;;;1.67;;
9473;SDS011;8865;47.636;7.692;2022-12-31T12:57:01;2.53;;;1.90;;
9473;SDS011;8865;47.636;7.692;2022-12-31T13:05:57;3.13;;;1.60;;
9473;SDS011;8865;47.636;7.692;2022-12-31T13:08:40;2.57;;;1.90;;
9473;SDS011;8865;47.636;7.692;2022-12-31T13:11:27;2.80;;;1.77;;
9473;SDS011;8865;47.636;7.692;2022-12-31T13:25:15;1.73;;;1.57;;
9473;SDS011;8865;47.636;7.692;2022-12-31T13:28:04;2.93;;;1.30;;
9473;SDS011;8865;47.636;7.692;2022-12-31T13:30:38;1.90;;;1.50;;
9473;SDS011;8865;47.636;7.692;2022-12-31T13:41:28;2.00;;;1.60;;
9473;SDS011;8865;47.636;7.692;2022-12-31T13:47:19;1.83;;;1.53;;
9473;SDS011;8865;47.636;7.692;2022-12-31T13:49:56;3.23;;;1.60;;
9473;SDS011;8865;47.636;7.692;2022-12-31T13:52:33;2.33;;;1.90;;
9473;SDS011;8865;47.636;7.692;2022-12-31T13:57:52;2.70;;;1.80;;
9473;SDS011;8865;47.636;7.692;2022-12-31T14:00:20;2.40;;;1.50;;
9473;SDS011;8865;47.636;7.692;2022-12-31T14:05:25;2.43;;;1.60;;
9473;SDS011;8865;47.636;7.692;2022-12-31T14:08:04;1.67;;;1.57;;
9473;SDS011;8865;47.636;7.692;2022-12-31T14:18:35;2.83;;;1.70;;
9473;SDS011;8865;47.636;7.692;2022-12-31T14:21:22;3.57;;;2.20;;
9473;SDS011;8865;47.636;7.692;2022-12-31T14:26:46;2.30;;;2.10;;
9473;SDS011;8865;47.636;7.692;2022-12-31T14:29:29;6.00;;;5.23;;
9473;SDS011;8865;47.636;7.692;2022-12-31T14:32:10;4.53;;;3.60;;
9473;SDS011;8865;47.636;7.692;2022-12-31T14:34:55;3.70;;;3.40;;
9473;SDS011;8865;47.636;7.692;2022-12-31T14:40:05;6.17;;;2.70;;
9473;SDS011;8865;47.636;7.692;2022-12-31T14:50:42;3.03;;;2.73;;
9473;SDS011;8865;47.636;7.692;2022-12-31T14:53:19;4.23;;;3.50;;
9473;SDS011;8865;47.636;7.692;2022-12-31T14:55:55;5.50;;;4.73;;
9473;SDS011;8865;47.636;7.692;2022-12-31T15:00:58;7.93;;;5.43;;
9473;SDS011;8865;47.636;7.692;2022-12-31T15:03:43;8.13;;;7.33;;
9473;SDS011;8865;47.636;7.692;2022-12-31T15:17:20;6.30;;;5.23;;
9473;SDS011;8865;47.636;7.692;2022-12-31T15:20:18;6.43;;;4.90;;
9473;SDS011;8865;47.636;7.692;2022-12-31T15:22:51;7.47;;;5.33;;
9473;SDS011;8865;47.636;7.692;2022-12-31T15:25:24;8.70;;;7.80;;
9473;SDS011;8865;47.636;7.692;2022-12-31T15:27:55;7.03;;;5.93;;
9473;SDS011;8865;47.636;7.692;2022-12-31T15:30:34;6.10;;;4.37;;
9473;SDS011;8865;47.636;7.692;2022-12-31T15:33:05;5.53;;;4.93;;
9473;SDS011;8865;47.636;7.692;2022-12-31T15:35:48;5.63;;;4.77;;
9473;SDS011;8865;47.636;7.692;2022-12-31T15:38:29;6.37;;;4.20;;
9473;SDS011;8865;47.636;7.692;2022-12-31T15:40:58;6.47;;;5.30;;
9473;SDS011;8865;47.636;7.692;2022-12-31T15:43:59;7.20;;;5.60;;
9473;SDS011;8865;47.636;7.692;2022-12-31T15:46:30;8.03;;;6.03;;
9473;SDS011;8865;47.636;7.692;2022-12-31T15:49:02;7.37;;;5.97;;
9473;SDS011;8865;47.636;7.692;2022-12-31T15:51:42;6.70;;;5.83;;
9473;SDS011;8865;47.636;7.692;2022-12-31T15:54:54;6.50;;;5.10;;
9473;SDS011;8865;47.636;7.692;2022-12-31T15:57:02;6.47;;;5.20;;
9473;SDS011;8865;47.636;7.692;2022-12-31T15:59:29;5.53;;;5.03;;
9473;SDS011;8865;47.636;7.692;2022-12-31T16:01:56;9.27;;;5.23;;
9473;SDS011;8865;47.636;7.692;2022-12-31T16:04:26;5.67;;;5.03;;
9473;SDS011;8865;47.636;7.692;2022-12-31T16:06:57;7.33;;;5.70;;
9473;SDS011;8865;47.636;7.692;2022-12-31T16:09:29;8.03;;;5.93;;
9473;SDS011;8865;47.636;7.692;2022-12-31T16:11:58;7.50;;;6.70;;
9473;SDS011;8865;47.636;7.692;2022-12-31T16:14:37;7.50;;;6.70;;
9473;SDS011;8865;47.636;7.692;2022-12-31T16:17:05;7.97;;;7.17;;
9473;SDS011;8865;47.636;7.692;2022-12-31T16:19:33;8.57;;;7.37;;
9473;SDS011;8865;47.636;7.692;2022-12-31T16:22:13;12.37;;;7.30;;
9473;SDS011;8865;47.636;7.692;2022-12-31T16:24:41;9.57;;;7.77;;
9473;SDS011;8865;47.636;7.692;2022-12-31T16:27:08;9.70;;;8.47;;
9473;SDS011;8865;47.636;7.692;2022-12-31T16:29:43;10.37;;;8.83;;
9473;SDS011;8865;47.636;7.692;2022-12-31T16:32:15;12.10;;;8.87;;
9473;SDS011;8865;47.636;7.692;2022-12-31T16:34:42;15.57;;;11.67;;
9473;SDS011;8865;47.636;7.692;2022-12-31T16:37:19;33.87;;;27.10;;
9473;SDS011;8865;47.636;7.692;2022-12-31T16:42:26;25.63;;;18.93;;
9473;SDS011;8865;47.636;7.692;2022-12-31T16:44:53;30.60;;;25.93;;
9473;SDS011;8865;47.636;7.692;2022-12-31T16:47:22;45.53;;;38.93;;
9473;SDS011;8865;47.636;7.692;2022-12-31T16:50:00;31.70;;;26.40;;
9473;SDS011;8865;47.636;7.692;2022-12-31T16:52:32;20.27;;;17.90;;
9473;SDS011;8865;47.636;7.692;2022-12-31T16:55:06;18.07;;;16.17;;
9473;SDS011;8865;47.636;7.692;2022-12-31T16:57:35;21.27;;;17.93;;
9473;SDS011;8865;47.636;7.692;2022-12-31T17:00:02;22.43;;;19.03;;
9473;SDS011;8865;47.636;7.692;2022-12-31T17:02:37;27.90;;;24.23;;
9473;SDS011;8865;47.636;7.692;2022-12-31T17:05:22;26.73;;;22.23;;
9473;SDS011;8865;47.636;7.692;2022-12-31T17:07:49;27.07;;;23.50;;
9473;SDS011;8865;47.636;7.692;2022-12-31T17:12:53;28.00;;;24.97;;
9473;SDS011;8865;47.636;7.692;2022-12-31T17:15:27;31.30;;;24.30;;
9473;SDS011;8865;47.636;7.692;2022-12-31T17:18:03;23.23;;;20.73;;
9473;SDS011;8865;47.636;7.692;2022-12-31T17:20:30;23.27;;;20.73;;
9473;SDS011;8865;47.636;7.692;2022-12-31T17:22:59;26.03;;;20.67;;
9473;SDS011;8865;47.636;7.692;2022-12-31T17:25:30;26.13;;;22.43;;
9473;SDS011;8865;47.636;7.692;2022-12-31T17:28:02;24.30;;;19.83;;
9473;SDS011;8865;47.636;7.692;2022-12-31T17:33:01;20.23;;;15.03;;
9473;SDS011;8865;47.636;7.692;2022-12-31T17:43:18;19.93;;;15.47;;
9473;SDS011;8865;47.636;7.692;2022-12-31T17:45:46;18.07;;;14.47;;
9473;SDS011;8865;47.636;7.692;2022-12-31T17:48:15;18.00;;;14.67;;
9473;SDS011;8865;47.636;7.692;2022-12-31T17:50:47;18.90;;;13.87;;
9473;SDS011;8865;47.636;7.692;2022-12-31T17:53:17;19.83;;;16.17;;
9473;SDS011;8865;47.636;7.692;2022-12-31T17:55:44;17.73;;;14.13;;
9473;SDS011;8865;47.636;7.692;2022-12-31T17:58:16;21.57;;;16.67;;
9473;SDS011;8865;47.636;7.692;2022-12-31T18:00:47;20.57;;;16.93;;
9473;SDS011;8865;47.636;7.692;2022-12-31T18:03:13;20.07;;;16.53;;
9473;SDS011;8865;47.636;7.692;2022-12-31T18:05:39;21.00;;;17.67;;
9473;SDS011;8865;47.636;7.692;2022-12-31T18:08:05;20.57;;;16.77;;
9473;SDS011;8865;47.636;7.692;2022-12-31T18:10:33;24.43;;;18.67;;
9473;SDS011;8865;47.636;7.692;2022-12-31T18:13:06;22.10;;;16.87;;
9473;SDS011;8865;47.636;7.692;2022-12-31T18:15:38;20.37;;;18.10;;
9473;SDS011;8865;47.636;7.692;2022-12-31T18:20:43;25.17;;;20.27;;
9473;SDS011;8865;47.636;7.692;2022-12-31T18:23:22;29.00;;;23.17;;
9473;SDS011;8865;47.636;7.692;2022-12-31T18:25:50;28.27;;;22.30;;
9473;SDS011;8865;47.636;7.692;2022-12-31T18:28:16;25.53;;;20.70;;
9473;SDS011;8865;47.636;7.692;2022-12-31T18:30:42;24.10;;;21.37;;
9473;SDS011;8865;47.636;7.692;2022-12-31T18:33:10;32.30;;;25.67;;
9473;SDS011;8865;47.636;7.692;2022-12-31T18:35:37;33.63;;;26.03;;
9473;SDS011;8865;47.636;7.692;2022-12-31T18:38:08;34.63;;;24.30;;
9473;SDS011;8865;47.636;7.692;2022-12-31T18:40:37;24.70;;;22.00;;
9473;SDS011;8865;47.636;7.692;2022-12-31T18:43:11;23.90;;;19.33;;
9473;SDS011;8865;47.636;7.692;2022-12-31T18:45:39;26.73;;;22.00;;
9473;SDS011;8865;47.636;7.692;2022-12-31T18:48:05;33.77;;;27.67;;
9473;SDS011;8865;47.636;7.692;2022-12-31T18:50:31;45.63;;;36.67;;
9473;SDS011;8865;47.636;7.692;2022-12-31T18:52:58;36.83;;;26.20;;
9473;SDS011;8865;47.636;7.692;2022-12-31T18:55:46;31.17;;;26.97;;
9473;SDS011;8865;47.636;7.692;2022-12-31T18:58:21;47.27;;;34.77;;
9473;SDS011;8865;47.636;7.692;2022-12-31T19:00:49;42.47;;;32.43;;
9473;SDS011;8865;47.636;7.692;2022-12-31T19:03:17;38.03;;;28.33;;
9473;SDS011;8865;47.636;7.692;2022-12-31T19:05:45;25.53;;;22.00;;
9473;SDS011;8865;47.636;7.692;2022-12-31T19:08:14;34.10;;;25.93;;
9473;SDS011;8865;47.636;7.692;2022-12-31T19:10:44;30.50;;;24.20;;
9473;SDS011;8865;47.636;7.692;2022-12-31T19:13:11;28.57;;;23.77;;
9473;SDS011;8865;47.636;7.692;2022-12-31T19:15:42;30.97;;;25.37;;
9473;SDS011;8865;47.636;7.692;2022-12-31T19:18:10;29.97;;;25.73;;
9473;SDS011;8865;47.636;7.692;2022-12-31T19:20:37;27.30;;;22.03;;
9473;SDS011;8865;47.636;7.692;2022-12-31T19:23:03;27.87;;;23.20;;
9473;SDS011;8865;47.636;7.692;2022-12-31T19:25:31;27.23;;;21.67;;
9473;SDS011;8865;47.636;7.692;2022-12-31T19:27:59;22.40;;;19.90;;
9473;SDS011;8865;47.636;7.692;2022-12-31T19:30:29;28.43;;;22.33;;
9473;SDS011;8865;47.636;7.692;2022-12-31T19:32:56;33.40;;;27.03;;
9473;SDS011;8865;47.636;7.692;2022-12-31T19:35:23;34.60;;;27.60;;
9473;SDS011;8865;47.636;7.692;2022-12-31T19:37:50;34.00;;;27.20;;
9473;SDS011;8865;47.636;7.692;2022-12-31T19:40:18;30.90;;;24.37;;
9473;SDS011;8865;47.636;7.692;2022-12-31T19:42:49;28.93;;;22.20;;
9473;SDS011;8865;47.636;7.692;2022-12-31T19:45:19;24.77;;;21.90;;
9473;SDS011;8865;47.636;7.692;2022-12-31T19:47:47;25.10;;;21.50;;
9473;SDS011;8865;47.636;7.692;2022-12-31T19:50:18;25.90;;;20.93;;
9473;SDS011;8865;47.636;7.692;2022-12-31T19:52:46;22.17;;;18.63;;
9473;SDS011;8865;47.636;7.692;2022-12-31T19:55:15;23.90;;;18.33;;
9473;SDS011;8865;47.636;7.692;2022-12-31T19:57:44;21.40;;;18.13;;
9473;SDS011;8865;47.636;7.692;2022-12-31T20:00:11;24.63;;;19.60;;
9473;SDS011;8865;47.636;7.692;2022-12-31T20:02:39;26.20;;;20.97;;
9473;SDS011;8865;47.636;7.692;2022-12-31T20:05:06;25.70;;;21.40;;
9473;SDS011;8865;47.636;7.692;2022-12-31T20:07:32;26.17;;;21.53;;
9473;SDS011;8865;47.636;7.692;2022-12-31T20:09:58;30.53;;;23.37;;
9473;SDS011;8865;47.636;7.692;2022-12-31T20:12:25;27.73;;;23.57;;
9473;SDS011;8865;47.636;7.692;2022-12-31T20:14:52;29.20;;;24.07;;
9473;SDS011;8865;47.636;7.692;2022-12-31T20:17:18;30.07;;;23.77;;
9473;SDS011;8865;47.636;7.692;2022-12-31T20:19:44;38.40;;;29.33;;
9473;SDS011;8865;47.636;7.692;2022-12-31T20:22:10;44.23;;;34.13;;
9473;SDS011;8865;47.636;7.692;2022-12-31T20:24:36;40.10;;;31.93;;
9473;SDS011;8865;47.636;7.692;2022-12-31T20:27:02;41.77;;;32.67;;
9473;SDS011;8865;47.636;7.692;2022-12-31T20:29:28;54.50;;;44.03;;
9473;SDS011;8865;47.636;7.692;2022-12-31T20:31:54;53.53;;;41.80;;
9473;SDS011;8865;47.636;7.692;2022-12-31T20:34:20;44.40;;;35.90;;
9473;SDS011;8865;47.636;7.692;2022-12-31T20:36:46;49.97;;;40.83;;
9473;SDS011;8865;47.636;7.692;2022-12-31T20:39:12;52.83;;;42.53;;
9473;SDS011;8865;47.636;7.692;2022-12-31T20:41:38;48.00;;;40.17;;